Time;durP1;ratioP1;P1;durP2;ratioP2;P2;SDS_P1;SDS_P2;PMS_P1;PMS_P2;Temp;Humidity;BMP_temperature;BMP_pressure;BME280_temperature;BME280_humidity;BME280_pressure;Samples;Min_cycle;Max_cycle;Signal;HPM_P1;HPM_P2
2022/08/01 00:00:12;;;;;;;4.40;4.00;;;22.50;91.20;;;;;;2096629;28;20178;-73
2022/08/01 00:01:13;;;;;;;4.20;3.80;;;22.50;91.20;;;;;;2096734;28;20052;-71
2022/08/01 00:02:14;;;;;;;4.22;3.83;;;22.50;91.10;;;;;;2097215;28;20063;-73
2022/08/01 00:03:15;;;;;;;5.07;3.70;;;22.60;91.10;;;;;;2096600;28;20506;-73
2022/08/01 00:04:16;;;;;;;4.03;3.60;;;22.60;91.10;;;;;;2088670;28;20029;-71
2022/08/01 00:05:17;;;;;;;4.93;3.90;;;22.60;91.00;;;;;;2096892;28;20676;-72
2022/08/01 00:06:18;;;;;;;5.28;4.28;;;22.60;91.10;;;;;;2097051;28;20039;-71
2022/08/01 00:07:24;;;;;;;5.75;4.38;;;22.60;91.00;;;;;;2088638;28;20044;-71
2022/08/01 00:08:24;;;;;;;4.90;3.90;;;22.60;91.00;;;;;;2088888;28;20123;-70
2022/08/01 00:09:25;;;;;;;3.95;3.55;;;22.50;91.00;;;;;;2088124;28;20028;-71
2022/08/01 00:10:27;;;;;;;3.97;3.67;;;22.50;90.90;;;;;;2096137;28;20025;-71
2022/08/01 00:11:28;;;;;;;5.53;3.80;;;22.50;90.80;;;;;;2105130;28;20102;-73
2022/08/01 00:12:28;;;;;;;4.28;3.88;;;22.50;90.70;;;;;;2105710;28;20039;-68
2022/08/01 00:13:29;;;;;;;4.70;3.90;;;22.50;90.60;;;;;;2097327;28;20025;-72
2022/08/01 00:14:30;;;;;;;4.50;4.20;;;22.50;90.60;;;;;;2097120;28;20028;-72
2022/08/01 00:15:32;;;;;;;4.05;3.67;;;22.50;90.60;;;;;;2097306;28;20028;-71
2022/08/01 00:16:32;;;;;;;4.55;3.80;;;22.50;90.80;;;;;;2106052;28;20012;-71
2022/08/01 00:17:33;;;;;;;4.15;3.78;;;22.50;90.80;;;;;;2105572;28;20062;-72
2022/08/01 00:18:35;;;;;;;5.38;3.60;;;22.50;90.70;;;;;;2105524;28;20043;-71
2022/08/01 00:19:36;;;;;;;3.80;3.50;;;22.50;90.50;;;;;;2106085;28;20028;-72
2022/08/01 00:20:36;;;;;;;4.20;3.60;;;22.50;90.50;;;;;;2097151;28;20036;-72
2022/08/01 00:21:40;;;;;;;3.70;3.40;;;22.50;90.60;;;;;;2097253;28;20094;-72
2022/08/01 00:22:43;;;;;;;3.83;3.53;;;22.50;90.60;;;;;;2105616;28;20547;-72
2022/08/01 00:23:47;;;;;;;3.60;3.30;;;22.50;90.70;;;;;;2096905;28;20613;-72
2022/08/01 00:24:50;;;;;;;4.05;3.60;;;22.50;90.70;;;;;;2089263;28;20450;-73
2022/08/01 00:25:51;;;;;;;3.85;3.53;;;22.50;90.80;;;;;;2088488;28;20033;-70
2022/08/01 00:26:52;;;;;;;4.10;3.70;;;22.50;90.80;;;;;;2095771;28;20628;-72
2022/08/01 00:27:54;;;;;;;4.05;3.70;;;22.50;90.80;;;;;;2096040;28;20039;-72
2022/08/01 00:28:54;;;;;;;3.83;3.50;;;22.50;90.90;;;;;;2096218;28;20033;-72
2022/08/01 00:29:55;;;;;;;3.55;3.25;;;22.50;91.00;;;;;;2105140;28;20054;-71
2022/08/01 00:30:59;;;;;;;3.80;3.50;;;22.50;91.10;;;;;;2088170;28;20033;-72
2022/08/01 00:32:00;;;;;;;4.53;3.75;;;22.50;91.30;;;;;;2088409;28;20505;-70
2022/08/01 00:33:01;;;;;;;4.20;3.75;;;22.50;91.30;;;;;;2088809;28;20499;-71
2022/08/01 00:34:02;;;;;;;3.90;3.60;;;22.40;91.40;;;;;;2097021;28;20016;-72
2022/08/01 00:35:03;;;;;;;4.03;3.63;;;22.40;91.50;;;;;;2087957;28;20818;-72
2022/08/01 00:36:07;;;;;;;4.00;3.60;;;22.40;91.60;;;;;;2088322;28;20029;-70
2022/08/01 00:37:09;;;;;;;3.72;3.42;;;22.40;91.90;;;;;;2096668;28;20195;-72
2022/08/01 00:38:10;;;;;;;3.70;3.40;;;22.40;92.00;;;;;;2096849;28;20050;-71
2022/08/01 00:39:15;;;;;;;3.63;3.33;;;22.40;92.00;;;;;;2088930;28;20036;-71
2022/08/01 00:40:16;;;;;;;4.47;3.95;;;22.30;91.80;;;;;;2089450;28;20021;-71
2022/08/01 00:41:17;;;;;;;4.20;3.80;;;22.30;91.50;;;;;;2105016;28;20020;-72
2022/08/01 00:42:18;;;;;;;4.03;3.63;;;22.20;91.60;;;;;;2096132;28;20054;-72
2022/08/01 00:43:19;;;;;;;4.20;3.80;;;22.20;91.70;;;;;;2096623;28;20032;-70
2022/08/01 00:44:19;;;;;;;4.63;3.65;;;22.20;91.80;;;;;;2105985;28;20051;-71
2022/08/01 00:45:20;;;;;;;4.00;3.70;;;22.20;91.90;;;;;;2088498;28;20510;-73
2022/08/01 00:46:21;;;;;;;3.95;3.58;;;22.20;92.00;;;;;;2088499;28;20025;-72
2022/08/01 00:47:22;;;;;;;5.57;3.63;;;22.10;92.00;;;;;;2087994;28;20056;-70
2022/08/01 00:48:23;;;;;;;4.03;3.63;;;22.10;92.10;;;;;;2096348;28;20040;-75
2022/08/01 00:49:24;;;;;;;4.18;3.72;;;22.10;92.30;;;;;;2096431;28;20518;-71
2022/08/01 00:50:25;;;;;;;3.70;3.40;;;22.10;92.50;;;;;;2096922;28;20024;-72
2022/08/01 00:51:30;;;;;;;4.30;3.90;;;22.00;92.70;;;;;;2096566;28;20028;-72
2022/08/01 00:52:43;;;;;;;4.50;4.10;;;22.00;92.90;;;;;;2105058;28;20031;-72
2022/08/01 00:53:47;;;;;;;4.07;3.67;;;22.00;93.10;;;;;;2097045;28;20028;-73
2022/08/01 00:54:48;;;;;;;3.90;3.60;;;21.90;93.20;;;;;;2097119;28;20012;-70
2022/08/01 00:55:49;;;;;;;3.85;3.55;;;21.90;93.30;;;;;;2096866;28;20433;-72
2022/08/01 00:56:50;;;;;;;4.00;3.70;;;21.80;93.30;;;;;;2096541;28;20029;-71
2022/08/01 00:57:51;;;;;;;3.80;3.50;;;21.80;93.30;;;;;;2096797;28;20027;-71
2022/08/01 00:58:53;;;;;;;3.90;3.60;;;21.80;93.70;;;;;;2096370;28;20023;-71
2022/08/01 00:59:54;;;;;;;3.85;3.50;;;21.80;93.50;;;;;;2096258;28;20267;-71
2022/08/01 01:00:55;;;;;;;4.22;3.83;;;21.70;93.60;;;;;;2096547;28;20025;-72
2022/08/01 01:01:55;;;;;;;4.22;3.83;;;21.70;93.60;;;;;;2097562;28;20028;-71
2022/08/01 01:02:59;;;;;;;4.13;3.72;;;21.70;93.70;;;;;;2097220;28;20036;-71
2022/08/01 01:04:06;;;;;;;4.30;3.90;;;21.70;93.70;;;;;;2098614;28;20021;-72
2022/08/01 01:05:07;;;;;;;6.28;4.00;;;21.70;93.70;;;;;;2096489;28;20028;-70
2022/08/01 01:06:44;;;;;;;4.47;3.88;;;21.60;93.80;;;;;;2096649;28;20497;-73
2022/08/01 01:07:56;;;;;;;4.28;3.80;;;21.70;94.00;;;;;;2056480;28;20604;-72
2022/08/01 01:09:15;;;;;;;4.57;3.90;;;21.60;94.30;;;;;;2089942;28;20570;-72
2022/08/01 01:10:42;;;;;;;4.63;3.90;;;21.60;94.40;;;;;;2090535;28;20378;-71
2022/08/01 01:11:54;;;;;;;6.60;3.80;;;21.60;94.70;;;;;;2093111;28;20080;-71
2022/08/01 01:13:03;;;;;;;5.50;3.80;;;21.60;95.00;;;;;;2081425;28;20025;-71
2022/08/01 01:14:10;;;;;;;3.83;3.53;;;21.50;95.00;;;;;;2081116;28;20025;-70
2022/08/01 01:15:20;;;;;;;4.50;3.95;;;21.50;95.10;;;;;;2073416;28;20045;-71
2022/08/01 01:16:22;;;;;;;4.00;3.70;;;21.50;95.00;;;;;;2082368;28;20052;-69
2022/08/01 01:17:31;;;;;;;4.30;3.90;;;21.50;94.90;;;;;;2088287;28;20431;-71
2022/08/01 01:18:36;;;;;;;4.25;3.85;;;21.50;94.90;;;;;;2097748;28;20044;-69
2022/08/01 01:19:44;;;;;;;4.35;3.95;;;21.50;94.90;;;;;;2095410;28;20029;-70
2022/08/01 01:21:08;;;;;;;4.55;4.15;;;21.50;95.00;;;;;;2096819;28;20158;-68
2022/08/01 01:22:27;;;;;;;4.00;3.70;;;21.40;95.10;;;;;;2104946;28;20032;-70
2022/08/01 01:23:38;;;;;;;4.20;3.80;;;21.40;95.20;;;;;;2104893;28;20036;-71
2022/08/01 01:24:54;;;;;;;4.72;4.15;;;21.50;95.50;;;;;;2088478;28;20126;-72
2022/08/01 01:26:07;;;;;;;4.68;4.03;;;21.40;95.80;;;;;;2081193;28;20076;-70
2022/08/01 01:27:22;;;;;;;4.20;3.78;;;21.40;95.90;;;;;;2082481;28;20064;-71
2022/08/01 01:28:54;;;;;;;4.32;3.92;;;21.50;96.40;;;;;;2097871;28;20043;-71
2022/08/01 01:29:58;;;;;;;4.20;3.90;;;21.50;96.30;;;;;;2095458;28;20082;-72
2022/08/01 01:31:00;;;;;;;4.95;3.50;;;21.50;96.40;;;;;;2096357;28;20459;-72
2022/08/01 01:32:05;;;;;;;4.30;3.90;;;21.50;96.40;;;;;;2095802;28;20761;-72
2022/08/01 01:33:09;;;;;;;4.30;3.90;;;21.50;96.60;;;;;;2096481;28;20039;-72
2022/08/01 01:34:12;;;;;;;3.90;3.60;;;21.50;96.70;;;;;;2104793;28;20111;-72
2022/08/01 01:35:22;;;;;;;4.00;3.70;;;21.50;96.70;;;;;;2104762;28;20376;-72
2022/08/01 01:36:25;;;;;;;4.38;3.97;;;21.50;96.70;;;;;;2105233;28;20046;-72
2022/08/01 01:37:29;;;;;;;4.00;3.55;;;21.50;96.70;;;;;;2095575;28;20029;-72
2022/08/01 01:38:36;;;;;;;3.83;3.53;;;21.50;96.70;;;;;;2087756;28;20116;-70
2022/08/01 01:39:38;;;;;;;4.25;3.85;;;21.50;96.70;;;;;;2097061;28;20032;-71
2022/08/01 01:40:40;;;;;;;4.88;3.67;;;21.50;96.50;;;;;;2095805;28;20096;-72
2022/08/01 01:41:42;;;;;;;3.90;3.60;;;21.50;96.50;;;;;;2096320;28;20035;-72
2022/08/01 01:42:44;;;;;;;4.00;3.60;;;21.60;96.40;;;;;;2096204;28;20123;-72
2022/08/01 01:43:47;;;;;;;3.95;3.63;;;21.60;96.40;;;;;;2096456;28;20042;-71
2022/08/01 01:44:49;;;;;;;3.80;3.50;;;21.60;96.30;;;;;;2105043;28;20111;-72
2022/08/01 01:45:51;;;;;;;8.57;3.90;;;21.60;96.30;;;;;;2105234;28;20085;-72
2022/08/01 01:46:56;;;;;;;5.20;3.60;;;21.60;96.30;;;;;;2097131;28;20029;-72
2022/08/01 01:48:04;;;;;;;4.00;3.70;;;21.60;96.30;;;;;;2097445;28;20502;-71
2022/08/01 01:49:09;;;;;;;3.78;3.47;;;21.70;96.40;;;;;;2096664;28;20855;-69
2022/08/01 01:50:31;;;;;;;4.07;3.70;;;21.70;96.60;;;;;;2096587;28;20029;-69
2022/08/01 01:51:33;;;;;;;3.92;3.60;;;21.70;96.60;;;;;;2099987;28;20036;-70
2022/08/01 01:52:35;;;;;;;4.07;3.70;;;21.70;96.60;;;;;;2106436;28;20032;-70
2022/08/01 01:53:36;;;;;;;3.92;3.60;;;21.70;96.60;;;;;;2095688;28;20056;-68
2022/08/01 01:54:48;;;;;;;4.57;3.95;;;21.70;96.50;;;;;;2095730;28;20078;-69
2022/08/01 01:55:54;;;;;;;4.38;3.97;;;21.70;97.20;;;;;;2097748;28;20032;-71
2022/08/01 01:57:00;;;;;;;4.43;4.03;;;21.70;97.80;;;;;;2104658;28;20036;-68
2022/08/01 01:58:01;;;;;;;4.05;3.72;;;21.70;97.90;;;;;;2105310;28;20069;-68
2022/08/01 01:59:04;;;;;;;4.90;4.10;;;21.70;97.80;;;;;;2105058;28;20032;-72
2022/08/01 02:00:07;;;;;;;4.25;3.85;;;21.70;97.80;;;;;;2096599;28;20094;-70
2022/08/01 02:01:11;;;;;;;5.88;3.90;;;21.70;97.90;;;;;;2096674;28;20751;-70
2022/08/01 02:02:13;;;;;;;4.22;3.88;;;21.70;98.00;;;;;;2088504;28;20029;-71
2022/08/01 02:03:15;;;;;;;4.30;3.90;;;21.70;98.00;;;;;;2081244;28;20128;-69
2022/08/01 02:04:17;;;;;;;4.07;3.78;;;21.70;98.00;;;;;;2088377;28;20066;-70
2022/08/01 02:05:19;;;;;;;4.18;3.80;;;21.70;98.00;;;;;;2096755;28;20040;-70
2022/08/01 02:06:21;;;;;;;4.28;3.97;;;21.70;97.90;;;;;;2105730;28;20028;-75
2022/08/01 02:10:22;;;;;;;4.15;3.78;;;21.70;97.90;;;;;;2105577;28;20024;-70
2022/08/01 02:11:24;;;;;;;4.40;3.97;;;21.60;98.20;;;;;;2088707;28;20076;-71
2022/08/01 02:12:25;;;;;;;4.45;4.00;;;21.70;98.30;;;;;;2087931;28;20033;-69
2022/08/01 02:13:34;;;;;;;4.30;3.90;;;21.60;98.30;;;;;;2079434;28;20076;-69
2022/08/01 02:14:44;;;;;;;4.47;3.95;;;21.60;98.40;;;;;;2088861;28;20041;-67
2022/08/01 02:15:45;;;;;;;;;;;21.60;98.30;;;;;;2088283;28;20120;-72
2022/08/01 02:16:52;;;;;;;4.30;3.90;;;21.60;98.30;;;;;;2080289;28;19909;-71
2022/08/01 02:17:54;;;;;;;4.10;3.80;;;21.60;98.30;;;;;;2088873;28;20112;-69
2022/08/01 02:18:56;;;;;;;4.07;3.78;;;21.60;98.30;;;;;;2088260;28;20139;-74
2022/08/01 02:19:58;;;;;;;4.65;3.90;;;21.60;98.30;;;;;;2097790;28;20024;-68
2022/08/01 02:21:02;;;;;;;4.57;4.18;;;21.60;98.20;;;;;;2089515;28;20078;-69
2022/08/01 02:22:13;;;;;;;4.45;4.05;;;21.60;98.20;;;;;;2089500;28;20024;-74
2022/08/01 02:23:18;;;;;;;4.40;4.00;;;21.60;98.20;;;;;;2092226;28;20033;-71
2022/08/01 02:24:31;;;;;;;4.43;3.90;;;21.60;98.20;;;;;;2097754;28;20059;-71
2022/08/01 02:25:40;;;;;;;4.50;3.90;;;21.60;98.30;;;;;;2089145;28;20025;-68
2022/08/01 02:26:54;;;;;;;4.63;3.90;;;21.70;98.50;;;;;;2091695;28;20075;-72
2022/08/01 02:28:01;;;;;;;5.07;4.05;;;21.70;98.60;;;;;;2105868;28;20497;-70
2022/08/01 02:29:06;;;;;;;4.55;3.95;;;21.70;98.70;;;;;;2097914;28;20146;-70
2022/08/01 02:30:10;;;;;;;4.63;3.90;;;21.70;98.60;;;;;;2090219;28;20029;-68
2022/08/01 02:31:15;;;;;;;5.38;4.22;;;21.60;98.60;;;;;;2089981;28;20513;-71
2022/08/01 02:32:56;;;;;;;5.05;4.05;;;21.60;98.80;;;;;;2090164;28;20029;-70
2022/08/01 02:34:02;;;;;;;4.65;4.25;;;21.60;99.10;;;;;;2103297;28;20032;-69
2022/08/01 02:35:07;;;;;;;5.40;3.83;;;21.60;99.40;;;;;;2089617;28;20044;-68
2022/08/01 02:36:08;;;;;;;4.50;4.10;;;21.60;99.90;;;;;;2089432;28;20399;-69
2022/08/01 02:37:09;;;;;;;4.40;4.00;;;21.60;99.90;;;;;;2097441;28;20028;-68
2022/08/01 02:38:13;;;;;;;4.68;4.28;;;21.60;99.90;;;;;;2106640;28;20024;-70
2022/08/01 02:39:21;;;;;;;5.13;4.00;;;21.60;99.90;;;;;;2097746;28;20033;-69
2022/08/01 02:40:23;;;;;;;4.32;3.92;;;21.60;99.90;;;;;;2089497;28;20495;-70
2022/08/01 02:41:27;;;;;;;4.78;4.20;;;21.60;99.90;;;;;;2098299;28;20534;-70
2022/08/01 02:42:29;;;;;;;4.65;4.22;;;21.60;99.90;;;;;;2097810;28;20020;-69
2022/08/01 02:43:36;;;;;;;4.70;4.22;;;21.60;99.90;;;;;;2098066;28;20026;-72
2022/08/01 02:44:41;;;;;;;4.15;3.75;;;21.60;99.90;;;;;;2097448;28;20055;-69
2022/08/01 02:45:47;;;;;;;4.50;4.10;;;21.50;99.90;;;;;;2097478;28;20392;-70
2022/08/01 02:46:56;;;;;;;4.20;3.90;;;21.60;99.90;;;;;;2088622;28;20039;-69
2022/08/01 02:48:05;;;;;;;4.47;4.07;;;21.50;99.90;;;;;;2090508;28;20021;-69
2022/08/01 02:49:10;;;;;;;5.13;4.35;;;21.50;99.90;;;;;;2097803;28;20391;-74
2022/08/01 02:50:16;;;;;;;6.65;4.30;;;21.50;99.90;;;;;;2091202;28;20123;-71
2022/08/01 02:51:18;;;;;;;4.65;4.10;;;21.50;99.90;;;;;;2098926;28;20016;-67
2022/08/01 02:52:35;;;;;;;4.90;4.45;;;21.50;99.90;;;;;;2090571;28;20055;-69
2022/08/01 02:53:39;;;;;;;4.88;4.10;;;21.50;99.90;;;;;;2092598;28;20498;-68
2022/08/01 02:54:44;;;;;;;5.25;4.20;;;21.50;99.90;;;;;;2105652;28;20044;-70
2022/08/01 02:55:54;;;;;;;4.53;3.97;;;21.50;99.90;;;;;;2090330;28;20330;-70
2022/08/01 02:56:56;;;;;;;5.00;4.40;;;21.50;99.90;;;;;;2093308;28;20107;-68
2022/08/01 02:57:58;;;;;;;5.45;4.38;;;21.50;99.90;;;;;;2107589;28;20050;-70
2022/08/01 02:59:00;;;;;;;5.97;4.30;;;21.50;99.90;;;;;;2090597;28;20123;-69
2022/08/01 03:00:01;;;;;;;4.78;4.10;;;21.50;99.90;;;;;;2090856;28;20166;-70
2022/08/01 03:01:06;;;;;;;4.65;3.88;;;21.50;99.90;;;;;;2099708;28;20021;-67
2022/08/01 03:02:08;;;;;;;4.80;4.00;;;21.50;99.90;;;;;;2090410;28;20036;-73
2022/08/01 03:03:10;;;;;;;4.30;3.90;;;21.50;99.90;;;;;;2089229;28;20037;-69
2022/08/01 03:04:12;;;;;;;4.28;3.90;;;21.50;99.90;;;;;;2096801;28;20457;-71
2022/08/01 03:05:14;;;;;;;4.43;3.95;;;21.50;99.90;;;;;;2096862;28;20086;-72
2022/08/01 03:06:17;;;;;;;4.90;3.90;;;21.50;99.90;;;;;;2097075;28;20055;-69
2022/08/01 03:07:19;;;;;;;4.40;3.58;;;21.50;99.90;;;;;;2105680;28;20038;-68
2022/08/01 03:08:21;;;;;;;4.35;3.80;;;21.50;99.90;;;;;;2096511;28;20036;-68
2022/08/01 03:09:22;;;;;;;3.90;3.60;;;21.50;99.90;;;;;;2088539;28;20573;-69
2022/08/01 03:10:26;;;;;;;4.78;3.70;;;21.50;99.90;;;;;;2096803;28;20029;-71
2022/08/01 03:11:29;;;;;;;5.07;3.70;;;21.50;99.90;;;;;;2097009;28;20478;-68
2022/08/01 03:12:32;;;;;;;4.13;3.75;;;21.50;99.90;;;;;;2097332;28;20047;-69
2022/08/01 03:13:33;;;;;;;3.72;3.42;;;21.50;99.90;;;;;;2105650;28;20020;-67
2022/08/01 03:14:37;;;;;;;4.65;3.95;;;21.50;99.90;;;;;;2097060;28;20036;-67
2022/08/01 03:15:41;;;;;;;4.22;3.83;;;21.50;99.90;;;;;;2096877;28;20067;-68
2022/08/01 03:16:44;;;;;;;4.53;4.10;;;21.50;99.90;;;;;;2096421;28;20025;-68
2022/08/01 03:17:47;;;;;;;4.28;3.88;;;21.60;99.90;;;;;;2096570;28;20037;-69
2022/08/01 03:18:49;;;;;;;5.50;4.20;;;21.60;99.90;;;;;;2105509;28;20024;-69
2022/08/01 03:19:52;;;;;;;4.47;4.07;;;21.50;99.90;;;;;;2105472;28;20020;-68
2022/08/01 03:20:54;;;;;;;5.72;4.15;;;21.50;99.90;;;;;;2096214;28;20043;-68
2022/08/01 03:21:58;;;;;;;4.35;3.95;;;21.50;99.90;;;;;;2096511;28;20056;-70
2022/08/01 03:23:03;;;;;;;5.10;4.38;;;21.50;99.90;;;;;;2105607;28;20024;-69
2022/08/01 03:24:06;;;;;;;5.10;4.28;;;21.50;99.90;;;;;;2096712;28;20126;-68
2022/08/01 03:25:07;;;;;;;4.00;3.70;;;21.50;99.90;;;;;;2096868;28;20028;-69
2022/08/01 03:26:09;;;;;;;4.30;3.90;;;21.50;99.90;;;;;;2105332;28;20031;-69
2022/08/01 03:27:11;;;;;;;6.07;4.10;;;21.40;99.90;;;;;;2105481;28;20060;-71
2022/08/01 03:28:13;;;;;;;4.60;4.10;;;21.50;99.90;;;;;;2104907;28;20106;-69
2022/08/01 03:29:19;;;;;;;4.65;3.90;;;21.50;99.90;;;;;;2096350;28;20028;-68
2022/08/01 03:30:23;;;;;;;5.25;4.20;;;21.50;99.90;;;;;;2089147;28;20329;-69
2022/08/01 03:31:25;;;;;;;5.25;4.38;;;21.50;99.90;;;;;;2097061;28;20036;-69
2022/08/01 03:32:28;;;;;;;4.97;4.13;;;21.50;99.90;;;;;;2105772;28;20082;-73
2022/08/01 03:33:29;;;;;;;4.75;3.97;;;21.50;99.90;;;;;;2105868;28;20105;-67
2022/08/01 03:34:30;;;;;;;4.63;4.22;;;21.50;99.90;;;;;;2105773;28;20020;-69
2022/08/01 03:35:36;;;;;;;4.45;4.05;;;21.40;99.90;;;;;;2106057;28;20047;-72
2022/08/01 03:37:05;;;;;;;5.53;4.30;;;21.50;99.90;;;;;;2106281;28;20028;-69
2022/08/01 03:38:10;;;;;;;4.60;4.20;;;21.50;99.90;;;;;;2096812;28;20423;-71
2022/08/01 03:39:13;;;;;;;4.50;4.10;;;21.50;99.90;;;;;;2097451;28;20465;-68
2022/08/01 03:40:22;;;;;;;4.40;4.00;;;21.50;99.90;;;;;;2106032;28;20020;-70
2022/08/01 03:41:27;;;;;;;5.25;4.75;;;21.50;99.90;;;;;;2106268;28;20027;-70
2022/08/01 03:42:49;;;;;;;5.40;4.50;;;21.50;99.90;;;;;;2097679;28;20032;-69
2022/08/01 03:44:14;;;;;;;4.60;4.20;;;21.50;99.90;;;;;;2100731;28;20032;-68
2022/08/01 03:45:31;;;;;;;6.65;4.05;;;21.50;99.90;;;;;;2105766;28;20024;-70
2022/08/01 03:46:46;;;;;;;4.97;4.32;;;21.50;99.90;;;;;;2105736;28;20036;-69
2022/08/01 03:47:51;;;;;;;4.53;4.10;;;21.50;99.90;;;;;;2106366;28;20122;-72
2022/08/01 03:48:55;;;;;;;4.90;4.40;;;21.50;99.90;;;;;;2105818;28;20016;-71
2022/08/01 03:49:58;;;;;;;4.68;4.28;;;21.40;99.90;;;;;;2096888;28;20040;-71
2022/08/01 03:50:59;;;;;;;5.00;4.60;;;21.50;99.90;;;;;;2097432;28;20031;-68
2022/08/01 03:52:04;;;;;;;4.80;4.20;;;21.40;99.90;;;;;;2097184;28;20528;-70
2022/08/01 03:53:07;;;;;;;5.05;4.28;;;21.40;99.90;;;;;;2105996;28;20047;-69
2022/08/01 03:54:10;;;;;;;4.97;4.43;;;21.50;99.90;;;;;;2106456;28;20024;-69
2022/08/01 03:55:12;;;;;;;4.80;4.30;;;21.40;99.90;;;;;;2105940;28;20058;-69
2022/08/01 03:56:19;;;;;;;4.78;4.38;;;21.40;99.90;;;;;;2106372;28;20100;-71
2022/08/01 03:57:21;;;;;;;4.45;4.00;;;21.50;99.90;;;;;;2097141;28;20032;-69
2022/08/01 03:58:22;;;;;;;4.70;4.18;;;21.40;99.90;;;;;;2088648;28;20123;-72
2022/08/01 03:59:23;;;;;;;4.68;4.28;;;21.40;99.90;;;;;;2096508;28;20024;-70
2022/08/01 04:00:24;;;;;;;4.88;4.20;;;21.40;99.90;;;;;;2105530;28;20032;-69
2022/08/01 04:01:25;;;;;;;4.72;4.22;;;21.50;99.90;;;;;;2087976;28;20060;-70
2022/08/01 04:02:27;;;;;;;5.32;4.28;;;21.40;99.90;;;;;;2087987;28;20713;-71
2022/08/01 04:03:29;;;;;;;4.95;4.07;;;21.50;99.90;;;;;;2096692;28;20025;-70
2022/08/01 04:04:30;;;;;;;5.78;4.35;;;21.50;99.90;;;;;;2105598;28;20042;-69
2022/08/01 04:05:31;;;;;;;4.57;4.20;;;21.40;99.90;;;;;;2105173;28;20028;-70
2022/08/01 04:06:32;;;;;;;4.50;4.10;;;21.50;99.90;;;;;;2105175;28;20020;-69
2022/08/01 04:07:38;;;;;;;4.70;4.30;;;21.50;99.90;;;;;;2104999;28;20028;-68
2022/08/01 04:08:40;;;;;;;8.07;4.50;;;21.50;99.90;;;;;;2096076;28;20127;-70
2022/08/01 04:09:42;;;;;;;5.38;4.50;;;21.50;99.90;;;;;;2096148;28;20024;-69
2022/08/01 04:10:43;;;;;;;6.13;4.35;;;21.40;99.90;;;;;;2105251;28;20020;-69
2022/08/01 04:11:43;;;;;;;5.00;4.50;;;21.40;99.90;;;;;;2096011;28;20033;-70
2022/08/01 04:12:44;;;;;;;4.82;4.32;;;21.50;99.90;;;;;;2087838;28;20130;-69
2022/08/01 04:13:45;;;;;;;4.60;4.20;;;21.40;99.90;;;;;;2096441;28;20112;-68
2022/08/01 04:14:46;;;;;;;4.82;4.22;;;21.40;99.90;;;;;;2096000;28;20081;-69
2022/08/01 04:15:47;;;;;;;6.60;4.43;;;21.50;99.90;;;;;;2096114;28;20456;-68
2022/08/01 04:16:48;;;;;;;4.53;4.13;;;21.50;99.90;;;;;;2105157;28;20031;-69
2022/08/01 04:17:48;;;;;;;4.88;4.38;;;21.50;99.90;;;;;;2104591;28;20020;-70
2022/08/01 04:18:49;;;;;;;4.50;4.10;;;21.50;99.90;;;;;;2095637;28;20482;-69
2022/08/01 04:19:50;;;;;;;4.70;4.30;;;21.40;99.90;;;;;;2096431;28;20020;-69
2022/08/01 04:20:51;;;;;;;4.90;3.97;;;21.50;99.90;;;;;;2105207;28;20474;-68
2022/08/01 04:21:52;;;;;;;5.03;3.88;;;21.40;99.90;;;;;;2096052;28;20024;-69
2022/08/01 04:22:52;;;;;;;4.38;3.97;;;21.40;99.90;;;;;;2096146;28;20118;-70
2022/08/01 04:23:57;;;;;;;4.22;3.83;;;21.50;99.90;;;;;;2105079;28;20047;-69
2022/08/01 04:25:02;;;;;;;4.30;3.90;;;21.50;99.90;;;;;;2087601;28;20033;-70
2022/08/01 04:26:05;;;;;;;4.40;4.00;;;21.40;99.90;;;;;;2089115;28;20064;-69
2022/08/01 04:27:21;;;;;;;5.00;4.10;;;21.50;99.90;;;;;;2104876;28;20015;-70
2022/08/01 04:28:23;;;;;;;4.00;3.70;;;21.50;99.90;;;;;;2104907;28;20035;-71
2022/08/01 04:29:25;;;;;;;5.20;4.43;;;21.50;99.90;;;;;;2096028;28;20028;-72
2022/08/01 04:30:29;;;;;;;5.00;4.07;;;21.50;99.90;;;;;;2088219;28;20039;-71
2022/08/01 04:31:31;;;;;;;4.30;3.90;;;21.60;99.90;;;;;;2096589;28;20417;-71
2022/08/01 04:32:39;;;;;;;5.80;4.10;;;21.60;99.90;;;;;;2105189;28;20028;-72
2022/08/01 04:33:45;;;;;;;4.97;4.32;;;21.60;99.90;;;;;;2105154;28;20034;-71
2022/08/01 04:34:46;;;;;;;4.57;4.15;;;21.70;99.90;;;;;;2105098;28;20501;-71
2022/08/01 04:35:49;;;;;;;5.00;4.53;;;21.70;99.90;;;;;;2105049;28;20032;-69
2022/08/01 04:36:54;;;;;;;5.10;4.43;;;21.80;99.90;;;;;;2105034;28;20733;-70
2022/08/01 04:37:56;;;;;;;5.68;4.65;;;21.80;99.90;;;;;;2095821;28;20837;-70
2022/08/01 04:38:59;;;;;;;5.75;5.15;;;21.80;99.90;;;;;;2096176;28;20706;-71
2022/08/01 04:40:01;;;;;;;5.70;4.82;;;21.80;99.90;;;;;;2096168;28;20028;-69
2022/08/01 04:41:02;;;;;;;6.05;4.90;;;21.80;99.90;;;;;;2096068;28;20099;-69
2022/08/01 04:42:05;;;;;;;7.32;5.00;;;21.80;99.90;;;;;;2106207;28;20031;-70
2022/08/01 04:43:05;;;;;;;6.15;4.90;;;21.80;99.90;;;;;;2097361;28;20047;-70
2022/08/01 04:44:06;;;;;;;9.18;4.72;;;21.90;99.90;;;;;;2097128;28;20027;-70
2022/08/01 04:45:08;;;;;;;6.88;5.00;;;21.80;99.90;;;;;;2105990;28;20032;-72
2022/08/01 04:46:10;;;;;;;5.43;4.50;;;21.80;99.90;;;;;;2097179;28;20044;-71
2022/08/01 04:47:12;;;;;;;6.25;4.20;;;21.90;99.90;;;;;;2097891;28;20028;-71
2022/08/01 04:48:16;;;;;;;6.25;4.70;;;21.90;99.90;;;;;;2106687;28;20119;-70
2022/08/01 04:49:17;;;;;;;6.07;4.63;;;21.90;99.90;;;;;;2106737;28;20039;-72
2022/08/01 04:50:21;;;;;;;4.93;4.38;;;21.90;99.90;;;;;;2105079;28;20028;-73
2022/08/01 04:51:22;;;;;;;5.10;4.32;;;22.00;99.90;;;;;;2104939;28;20036;-71
2022/08/01 04:52:22;;;;;;;5.40;4.85;;;22.00;99.90;;;;;;2104760;28;20103;-71
2022/08/01 04:53:23;;;;;;;5.55;5.05;;;22.00;99.90;;;;;;2104741;28;20635;-71
2022/08/01 04:54:25;;;;;;;5.35;4.85;;;22.00;99.90;;;;;;2095857;28;20037;-71
2022/08/01 04:55:25;;;;;;;5.20;4.70;;;22.00;99.90;;;;;;2095894;28;20032;-71
2022/08/01 04:56:26;;;;;;;4.70;4.30;;;22.00;99.90;;;;;;2095947;28;20055;-72
2022/08/01 04:57:27;;;;;;;4.90;4.32;;;22.00;99.90;;;;;;2095675;28;20025;-71
2022/08/01 04:58:28;;;;;;;5.32;4.57;;;22.00;99.90;;;;;;2095835;28;20177;-71
2022/08/01 04:59:39;;;;;;;5.53;5.03;;;22.00;99.90;;;;;;2095992;28;20126;-71
2022/08/01 05:00:40;;;;;;;5.90;5.00;;;22.00;99.90;;;;;;2104838;28;20024;-71
2022/08/01 05:01:41;;;;;;;6.28;5.13;;;22.00;99.90;;;;;;2095504;28;20033;-74
2022/08/01 05:02:41;;;;;;;5.43;4.70;;;22.00;99.90;;;;;;2087583;28;20052;-72
2022/08/01 05:03:42;;;;;;;5.20;4.70;;;22.00;99.90;;;;;;2088227;28;20025;-72
2022/08/01 05:04:52;;;;;;;7.07;4.93;;;22.00;99.90;;;;;;2105017;28;20032;-72
2022/08/01 05:05:56;;;;;;;5.90;5.35;;;22.00;99.90;;;;;;2087033;28;20497;-74
2022/08/01 05:07:03;;;;;;;6.43;4.38;;;22.00;99.90;;;;;;2088048;28;20036;-75
2022/08/01 05:08:05;;;;;;;5.72;5.13;;;22.00;99.90;;;;;;2087609;28;20065;-73
2022/08/01 05:09:06;;;;;;;5.30;4.80;;;21.90;99.90;;;;;;2088136;28;20574;-76
2022/08/01 05:10:08;;;;;;;7.78;4.93;;;21.80;99.90;;;;;;2096233;28;20134;-74
2022/08/01 05:11:11;;;;;;;6.40;5.13;;;21.70;99.90;;;;;;2096442;28;20422;-73
2022/08/01 05:12:18;;;;;;;5.70;4.60;;;21.70;99.90;;;;;;2095974;28;20560;-73
2022/08/01 05:13:22;;;;;;;6.47;4.88;;;21.60;99.90;;;;;;2096520;28;20024;-73
2022/08/01 05:14:23;;;;;;;7.07;4.82;;;21.50;99.90;;;;;;2112939;28;20110;-72
2022/08/01 05:15:23;;;;;;;6.32;5.72;;;21.50;99.90;;;;;;2104312;28;20028;-72
2022/08/01 05:16:24;;;;;;;6.22;5.43;;;21.50;99.90;;;;;;2095923;28;20387;-72
2022/08/01 05:17:25;;;;;;;6.63;5.38;;;21.50;99.90;;;;;;2087163;28;20192;-72
2022/08/01 05:18:26;;;;;;;5.75;5.07;;;21.50;99.90;;;;;;2095353;28;20040;-75
2022/08/01 05:19:27;;;;;;;8.43;5.03;;;21.60;99.90;;;;;;2104958;28;20024;-74
2022/08/01 05:20:27;;;;;;;7.70;4.82;;;21.60;99.90;;;;;;2104451;28;20483;-75
2022/08/01 05:21:28;;;;;;;6.93;4.80;;;21.60;99.90;;;;;;2104657;28;20024;-73
2022/08/01 05:22:29;;;;;;;5.13;4.50;;;21.60;99.90;;;;;;2095720;28;20111;-73
2022/08/01 05:23:32;;;;;;;6.03;5.40;;;21.60;99.90;;;;;;2095037;28;20035;-73
2022/08/01 05:24:37;;;;;;;5.20;4.80;;;21.70;99.90;;;;;;2087330;28;20033;-74
2022/08/01 05:25:38;;;;;;;5.18;4.68;;;21.60;99.90;;;;;;2088242;28;20040;-72
2022/08/01 05:26:39;;;;;;;6.43;4.40;;;21.70;99.90;;;;;;2104271;28;20050;-74
2022/08/01 05:27:50;;;;;;;7.93;4.75;;;21.70;99.90;;;;;;2104215;28;20032;-74
2022/08/01 05:28:51;;;;;;;8.93;4.38;;;21.70;99.90;;;;;;2104850;28;20016;-73
2022/08/01 05:29:51;;;;;;;4.72;4.20;;;21.70;99.90;;;;;;2096059;28;20568;-72
2022/08/01 05:30:54;;;;;;;5.38;4.20;;;21.70;99.90;;;;;;2095796;28;20086;-72
2022/08/01 05:31:55;;;;;;;7.22;4.10;;;21.60;99.90;;;;;;2104553;28;20043;-74
2022/08/01 05:32:55;;;;;;;7.15;4.03;;;21.70;99.90;;;;;;2104985;28;20048;-75
2022/08/01 05:33:56;;;;;;;5.78;3.97;;;21.60;99.90;;;;;;2095904;28;20518;-74
2022/08/01 05:34:57;;;;;;;6.45;4.30;;;21.70;99.90;;;;;;2096070;28;20047;-75
2022/08/01 05:35:57;;;;;;;6.30;4.10;;;21.70;99.90;;;;;;2095667;28;20070;-74
2022/08/01 05:36:58;;;;;;;4.28;3.97;;;21.80;99.90;;;;;;2095964;28;20037;-76